createdAt,value
2018-02-27T00:00:21.631Z,95.83
2018-02-27T00:01:21.265Z,95.83
2018-02-27T00:02:21.976Z,95.92
2018-02-27T00:03:21.293Z,95.92
2018-02-27T00:04:21.204Z,96.01
2018-02-27T00:05:20.936Z,96.11
2018-02-27T00:06:21.584Z,96.20
2018-02-27T00:07:21.357Z,96.30
2018-02-27T00:08:21.064Z,96.39
2018-02-27T00:09:21.581Z,96.48
2018-02-27T00:10:21.358Z,96.48
2018-02-27T00:11:21.104Z,96.58
2018-02-27T00:12:44.686Z,96.67
2018-02-27T00:13:45.383Z,96.77
2018-02-27T00:14:44.763Z,96.86
2018-02-27T00:15:45.222Z,96.95
2018-02-27T00:16:45.918Z,97.05
2018-02-27T00:17:45.237Z,97.14
2018-02-27T00:18:45.128Z,97.14
2018-02-27T00:19:45.543Z,97.24
2018-02-27T00:20:44.905Z,97.24
2018-02-27T00:21:45.291Z,97.33
2018-02-27T00:22:44.941Z,97.43
2018-02-27T00:23:45.642Z,97.43
2018-02-27T00:24:45.017Z,97.43
2018-02-27T00:25:45.681Z,97.43
2018-02-27T00:26:45.298Z,97.61
2018-02-27T00:27:45.124Z,97.71
2018-02-27T00:28:45.549Z,97.80
2018-02-27T00:29:45.044Z,97.90
2018-02-27T00:30:45.757Z,97.99
2018-02-27T00:31:45.161Z,97.99
2018-02-27T00:32:45.651Z,98.09
2018-02-27T00:33:45.423Z,98.18
2018-02-27T00:34:45.086Z,98.18
2018-02-27T00:35:45.433Z,98.18
2018-02-27T00:36:45.363Z,98.18
2018-02-27T00:38:06.252Z,98.28
2018-02-27T00:39:06.771Z,98.28
2018-02-27T00:40:07.082Z,98.37
2018-02-27T00:41:06.787Z,98.37
2018-02-27T00:42:06.306Z,98.37
2018-02-27T00:43:06.732Z,98.47
2018-02-27T00:44:06.256Z,98.47
2018-02-27T00:45:07.143Z,98.47
2018-02-27T00:46:27.634Z,98.47
2018-02-27T00:47:28.422Z,98.56
2018-02-27T00:48:28.038Z,98.56
2018-02-27T00:49:49.280Z,98.65
2018-02-27T00:50:49.745Z,98.75
2018-02-27T00:51:49.876Z,98.84
2018-02-27T00:52:50.195Z,98.94
2018-02-27T00:53:50.299Z,98.94
2018-02-27T00:54:49.900Z,98.94
2018-02-27T00:55:49.376Z,99.03
2018-02-27T00:56:49.954Z,99.03
2018-02-27T00:57:49.593Z,99.13
2018-02-27T00:58:50.400Z,99.22
2018-02-27T00:59:49.832Z,99.32
2018-02-27T01:00:50.580Z,99.32
2018-02-27T01:01:50.178Z,99.32
2018-02-27T01:02:49.694Z,99.41
2018-02-27T01:03:49.998Z,99.51
2018-02-27T01:04:49.469Z,99.51
2018-02-27T01:05:50.000Z,99.51
2018-02-27T01:06:49.402Z,99.51
2018-02-27T01:07:49.996Z,99.60
2018-02-27T01:08:49.374Z,99.79
2018-02-27T01:09:49.781Z,99.88
2018-02-27T01:10:50.406Z,99.79
2018-02-27T01:12:11.620Z,99.79
2018-02-27T01:13:33.615Z,99.83
2018-02-27T01:14:55.017Z,99.83
2018-02-27T01:15:55.413Z,99.93
2018-02-27T01:16:56.289Z,99.93
2018-02-27T01:18:17.364Z,99.99
2018-02-27T01:19:18.090Z,99.99
2018-02-27T01:20:17.509Z,99.99
2018-02-27T01:21:16.814Z,99.99
2018-02-27T01:22:17.243Z,99.99
2018-02-27T01:23:18.282Z,99.99
2018-02-27T01:24:17.705Z,99.99
2018-02-27T01:25:17.113Z,99.99
2018-02-27T01:26:17.719Z,99.99
2018-02-27T01:27:17.352Z,99.99
2018-02-27T01:28:17.684Z,99.99
2018-02-27T01:29:17.198Z,99.99
2018-02-27T01:31:00.104Z,99.99
2018-02-27T01:32:00.297Z,99.99
2018-02-27T01:33:01.102Z,99.99
2018-02-27T01:34:01.058Z,99.99
2018-02-27T01:35:00.386Z,99.99
2018-02-27T01:36:00.140Z,99.99
2018-02-27T01:37:00.915Z,99.99
2018-02-27T01:38:00.813Z,99.99
2018-02-27T01:39:00.281Z,99.99
2018-02-27T01:40:01.136Z,99.99
2018-02-27T01:41:00.525Z,99.99
2018-02-27T01:42:00.274Z,99.99
2018-02-27T01:43:00.609Z,99.99
2018-02-27T01:44:00.260Z,99.99
2018-02-27T01:45:00.770Z,99.99
2018-02-27T01:46:00.508Z,99.99
2018-02-27T01:47:00.069Z,99.99
2018-02-27T01:48:01.519Z,99.99
2018-02-27T01:49:00.146Z,99.99
2018-02-27T01:50:00.608Z,99.99
2018-02-27T01:51:00.405Z,99.99
2018-02-27T01:52:21.511Z,99.99
2018-02-27T01:53:22.204Z,99.99
2018-02-27T01:54:42.900Z,99.99
2018-02-27T01:55:44.208Z,99.99
2018-02-27T01:56:44.253Z,99.99
2018-02-27T01:57:43.907Z,99.99
2018-02-27T01:58:43.593Z,99.99
2018-02-27T01:59:43.233Z,99.99
2018-02-27T02:01:03.906Z,99.99
2018-02-27T02:02:04.347Z,99.99
2018-02-27T02:03:04.902Z,99.99
2018-02-27T02:04:04.630Z,99.99
2018-02-27T02:05:04.419Z,99.99
2018-02-27T02:06:05.060Z,99.99
2018-02-27T02:07:04.368Z,99.99
2018-02-27T02:08:04.660Z,99.99
2018-02-27T02:09:04.036Z,99.99
2018-02-27T02:10:04.769Z,99.99
2018-02-27T02:11:04.111Z,99.99
2018-02-27T02:12:05.036Z,99.99
2018-02-27T02:13:05.267Z,99.99
2018-02-27T02:14:04.623Z,99.99
2018-02-27T02:15:03.932Z,99.99
2018-02-27T02:16:04.597Z,99.99
2018-02-27T02:17:05.114Z,99.99
2018-02-27T02:18:04.410Z,99.99
2018-02-27T02:19:04.747Z,99.99
2018-02-27T02:20:04.140Z,99.99
2018-02-27T02:21:26.339Z,99.99
2018-02-27T02:22:26.494Z,99.99
2018-02-27T02:23:25.912Z,99.99
2018-02-27T02:24:26.636Z,99.99
2018-02-27T02:25:25.849Z,99.99
2018-02-27T02:26:26.376Z,99.99
2018-02-27T02:27:27.048Z,99.99
2018-02-27T02:28:26.691Z,99.99
2018-02-27T02:29:26.627Z,99.99
2018-02-27T02:30:25.957Z,99.99
2018-02-27T02:31:26.338Z,99.99
2018-02-27T02:32:26.611Z,99.99
2018-02-27T02:33:26.959Z,99.99
2018-02-27T02:34:26.515Z,99.99
2018-02-27T02:35:47.597Z,99.99
2018-02-27T02:36:47.856Z,99.99
2018-02-27T02:37:48.306Z,99.99
2018-02-27T02:38:47.836Z,99.99
2018-02-27T02:39:47.656Z,99.99
2018-02-27T02:40:48.315Z,99.99
2018-02-27T02:42:09.261Z,99.99
2018-02-27T02:43:10.118Z,99.99
2018-02-27T02:44:09.535Z,99.99
2018-02-27T02:45:10.329Z,99.99
2018-02-27T02:46:09.598Z,99.99
2018-02-27T02:47:31.525Z,99.99
2018-02-27T02:48:32.346Z,99.99
2018-02-27T02:49:53.213Z,99.99
2018-02-27T02:51:14.856Z,99.99
2018-02-27T02:52:15.473Z,99.99
2018-02-27T02:53:15.864Z,99.99
2018-02-27T02:54:15.128Z,99.99
2018-02-27T02:55:15.997Z,99.99
2018-02-27T02:56:15.337Z,99.99
2018-02-27T02:57:15.854Z,99.99
2018-02-27T02:58:15.514Z,99.99
2018-02-27T02:59:16.292Z,99.99
2018-02-27T03:00:16.047Z,99.99
2018-02-27T03:01:15.414Z,99.99
2018-02-27T03:02:16.106Z,99.99
2018-02-27T03:03:15.449Z,99.99
2018-02-27T03:04:16.328Z,99.99
2018-02-27T03:05:16.213Z,99.99
2018-02-27T03:06:16.065Z,99.99
2018-02-27T03:07:15.688Z,99.99
2018-02-27T03:08:15.501Z,99.99
2018-02-27T03:09:16.237Z,99.99
2018-02-27T03:10:16.090Z,99.99
2018-02-27T03:11:16.351Z,99.99
2018-02-27T03:12:16.241Z,99.99
2018-02-27T03:13:16.007Z,99.99
2018-02-27T03:14:15.581Z,99.99
2018-02-27T03:15:15.800Z,99.99
2018-02-27T03:16:15.165Z,99.99
2018-02-27T03:17:15.549Z,99.99
2018-02-27T03:18:15.351Z,99.99
2018-02-27T03:19:16.054Z,99.99
2018-02-27T03:20:16.044Z,99.99
2018-02-27T03:21:15.614Z,99.99
2018-02-27T03:22:15.264Z,99.99
2018-02-27T03:23:15.824Z,99.99
2018-02-27T03:24:16.426Z,99.99
2018-02-27T03:25:16.163Z,99.99
2018-02-27T03:26:15.778Z,99.99
2018-02-27T03:27:16.697Z,99.99
2018-02-27T03:28:15.574Z,99.99
2018-02-27T03:29:15.449Z,99.99
2018-02-27T03:30:37.124Z,99.99
2018-02-27T03:31:58.886Z,99.99
2018-02-27T03:32:59.136Z,99.99
2018-02-27T03:34:00.354Z,99.99
2018-02-27T03:35:00.065Z,99.99
2018-02-27T03:35:59.552Z,99.99
2018-02-27T03:36:59.254Z,99.99
2018-02-27T03:37:59.902Z,99.99
2018-02-27T03:39:31.540Z,99.99
2018-02-27T03:40:01.582Z,99.99
2018-02-27T03:40:59.039Z,99.99
2018-02-27T03:42:19.555Z,99.99
2018-02-27T03:43:20.254Z,99.99
2018-02-27T03:44:19.972Z,99.99
2018-02-27T03:45:20.341Z,99.99
2018-02-27T03:46:20.457Z,99.99
2018-02-27T03:47:19.642Z,99.99
2018-02-27T03:48:20.117Z,99.99
2018-02-27T03:49:20.811Z,99.99
2018-02-27T03:50:20.002Z,99.99
2018-02-27T03:51:20.583Z,99.99
2018-02-27T03:52:20.007Z,99.99
2018-02-27T03:53:20.364Z,99.99
2018-02-27T03:54:20.894Z,99.99
2018-02-27T03:55:20.419Z,99.99
2018-02-27T03:56:19.813Z,99.99
2018-02-27T03:57:20.279Z,99.99
2018-02-27T03:58:20.057Z,99.99
2018-02-27T03:59:20.623Z,99.99
2018-02-27T04:00:19.977Z,99.99
2018-02-27T04:01:20.174Z,99.99
2018-02-27T04:02:20.816Z,99.99
2018-02-27T04:03:20.527Z,99.99
2018-02-27T04:04:20.304Z,99.99
2018-02-27T04:05:20.562Z,99.99
2018-02-27T04:06:19.930Z,99.99
2018-02-27T04:07:20.734Z,99.99
2018-02-27T04:08:20.159Z,99.99
2018-02-27T04:09:20.210Z,99.99
2018-02-27T04:10:19.959Z,99.99
2018-02-27T04:11:20.651Z,99.99
2018-02-27T04:12:20.374Z,99.99
2018-02-27T04:13:41.555Z,99.99
2018-02-27T04:14:42.311Z,99.99
2018-02-27T04:15:41.534Z,99.99
2018-02-27T04:16:42.608Z,99.99
2018-02-27T04:17:42.251Z,99.99
2018-02-27T04:18:42.214Z,99.99
2018-02-27T04:20:03.457Z,99.99
2018-02-27T04:21:03.623Z,99.99
2018-02-27T04:22:25.297Z,99.99
2018-02-27T04:23:26.096Z,99.99
2018-02-27T04:24:25.520Z,99.99
2018-02-27T04:25:47.122Z,99.99
2018-02-27T04:26:47.404Z,99.99
2018-02-27T04:27:47.153Z,99.99
2018-02-27T04:28:47.601Z,99.99
2018-02-27T04:30:29.518Z,99.99
2018-02-27T04:31:30.199Z,99.99
2018-02-27T04:32:29.870Z,99.99
2018-02-27T04:33:29.371Z,99.99
2018-02-27T04:34:29.762Z,99.99
2018-02-27T04:35:30.150Z,99.99
2018-02-27T04:36:29.678Z,99.99
2018-02-27T04:37:30.455Z,99.99
2018-02-27T04:38:29.986Z,99.99
2018-02-27T04:39:29.351Z,99.99
2018-02-27T04:40:30.071Z,99.99
2018-02-27T04:41:29.350Z,99.99
2018-02-27T04:42:30.075Z,99.99
2018-02-27T04:43:29.434Z,99.99
2018-02-27T04:44:29.898Z,99.99
2018-02-27T04:45:29.203Z,99.99
2018-02-27T04:46:51.463Z,99.99
2018-02-27T04:47:52.250Z,99.99
2018-02-27T04:48:51.543Z,99.99
2018-02-27T04:49:51.885Z,99.99
2018-02-27T04:50:51.207Z,99.99
2018-02-27T04:51:51.862Z,99.99
2018-02-27T04:52:51.633Z,99.99
2018-02-27T04:53:52.315Z,99.99
2018-02-27T04:54:52.052Z,99.99
2018-02-27T04:55:51.384Z,99.99
2018-02-27T04:56:52.284Z,99.99
2018-02-27T04:57:52.068Z,99.99
2018-02-27T04:58:51.442Z,99.99
2018-02-27T04:59:52.009Z,99.99
2018-02-27T05:01:34.766Z,99.99
2018-02-27T05:02:34.932Z,99.99
2018-02-27T05:03:34.197Z,99.99
2018-02-27T05:04:35.051Z,99.99
2018-02-27T05:05:34.979Z,99.99
2018-02-27T05:06:34.666Z,99.99
2018-02-27T05:07:35.138Z,99.99
2018-02-27T05:08:34.782Z,99.99
2018-02-27T05:09:35.610Z,99.99
2018-02-27T05:10:35.289Z,99.99
2018-02-27T05:11:35.118Z,99.99
2018-02-27T05:12:35.106Z,99.99
2018-02-27T05:13:34.869Z,99.99
2018-02-27T05:14:34.777Z,99.99
2018-02-27T05:15:35.089Z,99.99
2018-02-27T05:16:34.911Z,99.99
2018-02-27T05:17:35.488Z,99.99
2018-02-27T05:18:34.693Z,99.99
2018-02-27T05:19:35.767Z,99.99
2018-02-27T05:20:35.192Z,99.99
2018-02-27T05:21:34.686Z,99.99
2018-02-27T05:22:34.986Z,99.99
2018-02-27T05:23:35.749Z,99.99
2018-02-27T05:24:34.916Z,99.99
2018-02-27T05:25:35.601Z,99.99
2018-02-27T05:27:07.391Z,99.99
2018-02-27T05:28:29.091Z,99.99
2018-02-27T05:29:29.438Z,99.99
2018-02-27T05:30:49.783Z,99.99
2018-02-27T05:31:50.132Z,99.99
2018-02-27T05:32:51.019Z,99.99
2018-02-27T05:33:50.355Z,99.99
2018-02-27T05:34:50.069Z,99.99
2018-02-27T05:35:50.762Z,99.99
2018-02-27T05:37:11.509Z,99.99
2018-02-27T05:38:11.924Z,99.99
2018-02-27T05:39:11.503Z,99.99
2018-02-27T05:40:11.946Z,99.99
2018-02-27T05:41:11.450Z,99.99
2018-02-27T05:42:12.161Z,99.99
2018-02-27T05:43:11.817Z,99.99
2018-02-27T05:44:12.501Z,99.99
2018-02-27T05:45:12.216Z,99.99
2018-02-27T05:46:11.720Z,99.99
2018-02-27T05:47:33.859Z,99.99
2018-02-27T05:49:17.564Z,99.99
2018-02-27T05:50:18.228Z,99.99
2018-02-27T05:51:17.966Z,99.99
2018-02-27T05:52:17.454Z,99.99
2018-02-27T05:53:17.844Z,99.99
2018-02-27T05:54:18.107Z,99.99
2018-02-27T05:55:18.145Z,99.99
2018-02-27T05:56:17.501Z,99.99
2018-02-27T05:57:18.450Z,99.99
2018-02-27T05:58:18.388Z,99.99
2018-02-27T05:59:18.056Z,99.99
2018-02-27T06:00:17.542Z,99.99
2018-02-27T06:01:18.085Z,99.99
2018-02-27T06:02:40.108Z,99.99
2018-02-27T06:03:38.638Z,99.99
2018-02-27T06:04:39.268Z,99.99
2018-02-27T06:05:38.900Z,99.99
2018-02-27T06:06:40.032Z,99.99
2018-02-27T06:07:39.321Z,99.99
2018-02-27T06:08:39.463Z,99.99
2018-02-27T06:09:38.949Z,99.99
2018-02-27T06:11:00.897Z,99.99
2018-02-27T06:12:01.527Z,99.99
2018-02-27T06:13:01.299Z,99.99
2018-02-27T06:14:00.612Z,99.99
2018-02-27T06:15:01.508Z,99.99
2018-02-27T06:16:00.904Z,99.99
2018-02-27T06:17:01.707Z,99.99
2018-02-27T06:18:01.372Z,99.99
2018-02-27T06:19:00.765Z,99.99
2018-02-27T06:20:01.300Z,99.99
2018-02-27T06:21:01.017Z,99.99
2018-02-27T06:22:01.864Z,99.99
2018-02-27T06:23:01.624Z,99.99
2018-02-27T06:24:01.409Z,99.99
2018-02-27T06:25:00.943Z,99.99
2018-02-27T06:26:01.676Z,99.99
2018-02-27T06:27:01.168Z,99.99
2018-02-27T06:28:00.632Z,99.99
2018-02-27T06:29:01.305Z,99.99
2018-02-27T06:30:01.008Z,99.99
2018-02-27T06:31:02.410Z,99.99
2018-02-27T06:32:01.104Z,99.99
2018-02-27T06:33:00.981Z,99.99
2018-02-27T06:34:01.282Z,99.99
2018-02-27T06:35:00.824Z,99.99
2018-02-27T06:36:01.222Z,99.99
2018-02-27T06:37:00.915Z,99.99
2018-02-27T06:38:01.889Z,99.99
2018-02-27T06:39:01.199Z,99.99
2018-02-27T06:40:22.292Z,99.99
2018-02-27T06:41:22.923Z,99.99
2018-02-27T06:42:22.705Z,99.99
2018-02-27T06:43:22.486Z,99.99
2018-02-27T06:44:23.287Z,99.99
2018-02-27T06:45:23.083Z,99.99
2018-02-27T06:46:22.744Z,99.99
2018-02-27T06:47:22.452Z,99.99
2018-02-27T06:48:22.787Z,99.99
2018-02-27T06:49:44.657Z,99.99
2018-02-27T06:51:06.423Z,99.99
2018-02-27T06:52:07.170Z,99.99
2018-02-27T06:53:07.007Z,99.99
2018-02-27T06:54:06.505Z,99.99
2018-02-27T06:55:06.956Z,99.99
2018-02-27T06:56:06.553Z,99.99
2018-02-27T06:57:07.297Z,99.99
2018-02-27T06:58:07.182Z,99.99
2018-02-27T06:59:28.510Z,99.99
2018-02-27T07:00:29.433Z,99.99
2018-02-27T07:01:29.078Z,99.99
2018-02-27T07:02:28.327Z,99.99
2018-02-27T07:03:29.461Z,99.99
2018-02-27T07:04:29.352Z,99.99
2018-02-27T07:05:29.414Z,99.99
2018-02-27T07:06:29.958Z,99.99
2018-02-27T07:07:28.989Z,99.99
2018-02-27T07:08:28.489Z,99.99
2018-02-27T07:09:50.473Z,99.99
2018-02-27T07:10:51.351Z,99.99
2018-02-27T07:11:50.776Z,99.99
2018-02-27T07:12:51.665Z,99.99
2018-02-27T07:13:51.296Z,99.99
2018-02-27T07:14:50.764Z,99.99
2018-02-27T07:16:12.875Z,99.99
2018-02-27T07:17:13.304Z,99.99
2018-02-27T07:18:13.464Z,99.99
2018-02-27T07:19:13.932Z,99.99
2018-02-27T07:20:13.412Z,99.99
2018-02-27T07:21:14.287Z,99.99
2018-02-27T07:22:14.440Z,99.99
2018-02-27T07:23:13.288Z,99.99
2018-02-27T07:24:13.026Z,99.99
2018-02-27T07:25:14.034Z,99.99
2018-02-27T07:26:13.822Z,99.99
2018-02-27T07:27:13.388Z,99.99
2018-02-27T07:28:14.389Z,99.99
2018-02-27T07:29:13.891Z,99.99
2018-02-27T07:30:14.058Z,99.99
2018-02-27T07:31:35.475Z,99.99
2018-02-27T07:32:36.496Z,99.99
2018-02-27T07:33:36.235Z,99.99
2018-02-27T07:34:36.008Z,99.74
2018-02-27T07:35:57.418Z,99.18
2018-02-27T07:36:57.932Z,97.91
2018-02-27T07:37:57.960Z,96.68
2018-02-27T07:38:57.572Z,95.73
2018-02-27T07:40:40.455Z,95.03
2018-02-27T07:41:41.116Z,94.93
2018-02-27T07:42:40.754Z,94.93
2018-02-27T07:43:41.253Z,95.21
2018-02-27T07:44:40.816Z,95.50
2018-02-27T07:46:24.793Z,95.87
2018-02-27T07:47:25.157Z,95.21
2018-02-27T07:48:45.946Z,94.65
2018-02-27T07:49:46.850Z,94.32
2018-02-27T07:50:46.895Z,93.84
2018-02-27T07:51:46.695Z,93.37
2018-02-27T07:52:46.431Z,93.28
2018-02-27T07:54:07.886Z,93.09
2018-02-27T07:55:08.983Z,92.80
2018-02-27T07:56:08.814Z,92.33
2018-02-27T07:57:08.641Z,92.52
2018-02-27T07:58:08.179Z,92.33
2018-02-27T07:59:08.570Z,91.67
2018-02-27T08:00:08.321Z,91.30
2018-02-27T08:01:08.616Z,91.30
2018-02-27T08:02:08.544Z,91.49
2018-02-27T08:03:08.069Z,91.39
2018-02-27T08:04:07.906Z,91.20
2018-02-27T08:05:07.448Z,91.49
2018-02-27T08:06:29.293Z,91.49
2018-02-27T08:07:29.969Z,91.20
2018-02-27T08:08:29.466Z,91.58
2018-02-27T08:09:29.874Z,91.67
2018-02-27T08:10:29.436Z,91.67
2018-02-27T08:11:29.938Z,91.77
2018-02-27T08:12:29.375Z,91.20
2018-02-27T08:13:29.929Z,91.11
2018-02-27T08:14:29.828Z,91.49
2018-02-27T08:15:29.803Z,91.67
2018-02-27T08:16:30.547Z,91.30
2018-02-27T08:17:30.070Z,90.92
2018-02-27T08:18:29.791Z,90.64
2018-02-27T08:19:30.401Z,90.82
2018-02-27T08:20:30.107Z,91.01
2018-02-27T08:21:29.922Z,91.20
2018-02-27T08:22:29.938Z,91.16
2018-02-27T08:23:29.580Z,91.35
2018-02-27T08:24:51.346Z,91.44
2018-02-27T08:25:51.725Z,91.63
2018-02-27T08:26:51.284Z,91.72
2018-02-27T08:27:52.164Z,91.91
2018-02-27T08:28:51.771Z,92.00
2018-02-27T08:29:51.499Z,91.91
2018-02-27T08:31:13.320Z,91.72
2018-02-27T08:32:13.894Z,91.91
2018-02-27T08:33:13.602Z,92.00
2018-02-27T08:34:13.724Z,92.47
2018-02-27T08:35:13.193Z,92.76
2018-02-27T08:36:13.997Z,92.85
2018-02-27T08:37:13.758Z,92.85
2018-02-27T08:38:13.363Z,92.95
2018-02-27T08:39:14.236Z,93.18
2018-02-27T08:40:13.766Z,93.09
2018-02-27T08:41:36.820Z,92.19
2018-02-27T08:42:37.990Z,92.19
2018-02-27T08:43:37.149Z,92.52
2018-02-27T08:44:58.046Z,92.99
2018-02-27T08:45:58.906Z,93.09
2018-02-27T08:46:58.607Z,93.18
2018-02-27T08:47:58.222Z,93.09
2018-02-27T08:49:20.338Z,93.56
2018-02-27T08:50:20.916Z,94.03
2018-02-27T08:51:20.788Z,94.36
2018-02-27T08:52:20.690Z,95.03
2018-02-27T08:53:20.224Z,95.50
2018-02-27T08:54:21.178Z,95.68
2018-02-27T08:55:21.090Z,96.06
2018-02-27T08:56:20.494Z,96.53
2018-02-27T08:57:21.288Z,96.63
2018-02-27T08:58:20.935Z,96.63
2018-02-27T08:59:20.995Z,96.72
2018-02-27T09:00:20.615Z,96.72
2018-02-27T09:01:20.575Z,97.19
2018-02-27T09:02:21.082Z,97.00
2018-02-27T09:03:20.591Z,97.19
2018-02-27T09:04:20.089Z,97.38
2018-02-27T09:05:21.008Z,97.38
2018-02-27T09:06:21.120Z,97.57
2018-02-27T09:07:20.918Z,97.67
2018-02-27T09:08:20.753Z,97.48
2018-02-27T09:09:20.422Z,97.48
2018-02-27T09:10:21.044Z,97.67
2018-02-27T09:11:20.662Z,97.76
2018-02-27T09:12:20.125Z,97.76
2018-02-27T09:13:20.769Z,97.95
2018-02-27T09:14:20.589Z,98.04
2018-02-27T09:15:21.415Z,98.14
2018-02-27T09:16:21.077Z,98.14
2018-02-27T09:17:20.997Z,98.23
2018-02-27T09:18:21.003Z,98.14
2018-02-27T09:19:21.258Z,98.04
2018-02-27T09:20:22.203Z,98.14
2018-02-27T09:21:21.402Z,97.76
2018-02-27T09:22:21.372Z,97.15
2018-02-27T09:23:21.093Z,95.92
2018-02-27T09:24:20.804Z,94.98
2018-02-27T09:25:20.692Z,94.18
2018-02-27T09:26:20.637Z,93.70
2018-02-27T09:27:20.676Z,92.94
2018-02-27T09:28:20.401Z,92.10
2018-02-27T09:29:21.048Z,91.44
2018-02-27T09:30:21.040Z,90.73
2018-02-27T09:31:20.883Z,90.06
2018-02-27T09:32:20.275Z,89.97
2018-02-27T09:33:21.216Z,89.69
2018-02-27T09:34:21.240Z,89.54
2018-02-27T09:35:20.973Z,89.26
2018-02-27T09:36:20.973Z,89.31
2018-02-27T09:37:20.603Z,89.17
2018-02-27T09:38:20.463Z,88.98
2018-02-27T09:39:42.594Z,88.98
2018-02-27T09:40:43.793Z,89.07
2018-02-27T09:41:43.181Z,89.26
2018-02-27T09:42:43.069Z,89.36
2018-02-27T09:44:26.268Z,88.89
2018-02-27T09:45:26.818Z,88.51
2018-02-27T09:46:26.333Z,88.32
2018-02-27T09:47:25.879Z,88.51
2018-02-27T09:48:26.601Z,88.60
2018-02-27T09:49:47.461Z,88.79
2018-02-27T09:50:48.634Z,88.60
2018-02-27T09:51:48.207Z,88.32
2018-02-27T09:52:48.296Z,87.94
2018-02-27T09:53:48.289Z,87.79
2018-02-27T09:54:47.892Z,87.32
2018-02-27T09:55:47.563Z,86.85
2018-02-27T09:56:48.515Z,86.04
2018-02-27T09:57:48.165Z,85.57
2018-02-27T09:58:47.862Z,84.91
2018-02-27T09:59:48.629Z,84.34
2018-02-27T10:00:48.414Z,84.10
2018-02-27T10:01:48.065Z,82.97
2018-02-27T10:02:48.615Z,81.83
2018-02-27T10:03:48.566Z,80.98
2018-02-27T10:04:48.234Z,80.98
2018-02-27T10:05:47.904Z,80.83
2018-02-27T10:06:47.405Z,80.07
2018-02-27T10:07:48.008Z,79.22
2018-02-27T10:08:47.744Z,78.41
2018-02-27T10:09:48.441Z,77.37
2018-02-27T10:10:48.214Z,76.17
2018-02-27T10:11:48.825Z,75.13
2018-02-27T10:12:47.441Z,74.85
2018-02-27T10:13:47.959Z,74.37
2018-02-27T10:14:47.879Z,73.99
2018-02-27T10:15:47.778Z,74.09
2018-02-27T10:16:47.734Z,74.15
2018-02-27T10:17:48.389Z,74.43
2018-02-27T10:18:48.046Z,74.96
2018-02-27T10:19:48.006Z,76.19
2018-02-27T10:20:47.521Z,77.04
2018-02-27T10:21:48.719Z,77.42
2018-02-27T10:23:09.638Z,77.33
2018-02-27T10:24:10.297Z,76.61
2018-02-27T10:25:09.783Z,76.10
2018-02-27T10:26:10.687Z,76.10
2018-02-27T10:27:10.355Z,76.67
2018-02-27T10:28:10.499Z,77.70
2018-02-27T10:29:10.241Z,77.89
2018-02-27T10:30:10.078Z,77.51
2018-02-27T10:31:09.685Z,77.42
2018-02-27T10:32:10.281Z,77.51
2018-02-27T10:33:10.104Z,77.04
2018-02-27T10:34:31.367Z,76.95
2018-02-27T10:35:32.384Z,77.01
2018-02-27T10:36:31.938Z,77.86
2018-02-27T10:37:31.518Z,77.86
2018-02-27T10:39:13.740Z,78.18
2018-02-27T10:40:36.399Z,78.33
2018-02-27T10:41:37.046Z,78.99
2018-02-27T10:42:36.903Z,80.41
2018-02-27T10:43:36.878Z,82.40
2018-02-27T10:44:36.888Z,84.29
2018-02-27T10:45:58.008Z,83.25
2018-02-27T10:46:58.687Z,79.85
2018-02-27T10:47:58.730Z,80.04
2018-02-27T10:48:58.200Z,81.83
2018-02-27T10:49:58.119Z,80.04
2018-02-27T10:50:57.973Z,79.85
2018-02-27T10:51:58.843Z,78.90
2018-02-27T10:52:58.821Z,78.90
2018-02-27T10:53:58.699Z,78.95
2018-02-27T10:54:58.932Z,80.65
2018-02-27T10:55:58.749Z,83.21
2018-02-27T10:56:58.635Z,83.40
2018-02-27T10:58:20.112Z,81.22
2018-02-27T10:59:20.774Z,81.22
2018-02-27T11:00:20.562Z,81.13
2018-02-27T11:01:20.563Z,80.90
2018-02-27T11:02:20.409Z,82.12
2018-02-27T11:03:20.438Z,83.78
2018-02-27T11:04:19.874Z,83.30
2018-02-27T11:05:20.718Z,83.02
2018-02-27T11:06:20.111Z,82.17
2018-02-27T11:07:20.863Z,81.70
2018-02-27T11:08:20.804Z,81.70
2018-02-27T11:09:20.494Z,81.70
2018-02-27T11:10:20.469Z,81.93
2018-02-27T11:11:19.948Z,82.22
2018-02-27T11:12:20.512Z,82.98
2018-02-27T11:13:20.561Z,83.92
2018-02-27T11:14:41.214Z,84.39
2018-02-27T11:15:42.176Z,85.43
2018-02-27T11:16:42.080Z,87.42
2018-02-27T11:17:41.693Z,88.36
2018-02-27T11:18:41.863Z,88.41
2018-02-27T11:19:41.811Z,86.61
2018-02-27T11:20:41.322Z,84.77
2018-02-27T11:21:42.236Z,81.40
2018-02-27T11:22:41.822Z,78.03
2018-02-27T11:23:41.696Z,76.76
2018-02-27T11:24:41.269Z,77.51
2018-02-27T11:25:41.820Z,76.19
2018-02-27T11:26:41.429Z,74.90
2018-02-27T11:27:42.081Z,73.43
2018-02-27T11:28:42.109Z,70.62
2018-02-27T11:29:42.231Z,68.19
2018-02-27T11:30:42.202Z,66.29
2018-02-27T11:31:41.778Z,65.72
2018-02-27T11:32:41.197Z,65.85
2018-02-27T11:33:42.076Z,65.41
2018-02-27T11:34:42.041Z,62.88
2018-02-27T11:35:42.095Z,61.26
2018-02-27T11:36:41.583Z,60.10
2018-02-27T11:37:41.161Z,60.44
2018-02-27T11:38:41.919Z,61.65
2018-02-27T11:39:43.197Z,62.50
2018-02-27T11:40:41.632Z,63.35
2018-02-27T11:41:41.647Z,63.70
2018-02-27T11:42:42.349Z,64.14
2018-02-27T11:43:42.242Z,64.61
2018-02-27T11:44:42.283Z,64.33
2018-02-27T11:45:41.850Z,65.19
2018-02-27T11:46:41.986Z,67.05
2018-02-27T11:47:41.723Z,68.33
2018-02-27T11:48:41.477Z,69.66
2018-02-27T11:49:42.351Z,70.89
2018-02-27T11:51:05.223Z,71.90
2018-02-27T11:52:26.268Z,73.13
2018-02-27T11:53:27.260Z,73.22
2018-02-27T11:54:48.345Z,72.75
2018-02-27T11:55:49.834Z,72.47
2018-02-27T11:56:48.818Z,72.90
2018-02-27T11:57:48.385Z,73.75
2018-02-27T11:58:49.050Z,74.88
2018-02-27T12:00:10.421Z,75.83
2018-02-27T12:01:11.676Z,76.31
2018-02-27T12:02:10.438Z,76.68
2018-02-27T12:03:11.169Z,76.72
2018-02-27T12:04:11.009Z,75.78
2018-02-27T12:05:32.661Z,75.40
2018-02-27T12:06:32.546Z,74.87
2018-02-27T12:07:33.044Z,73.07
2018-02-27T12:08:54.765Z,71.93
2018-02-27T12:09:55.330Z,72.31
2018-02-27T12:10:54.861Z,72.78
2018-02-27T12:11:55.731Z,73.26
2018-02-27T12:12:55.310Z,72.63
2018-02-27T12:13:55.147Z,71.97
2018-02-27T12:14:54.549Z,71.59
2018-02-27T12:15:55.692Z,70.45
2018-02-27T12:16:55.469Z,69.89
2018-02-27T12:17:55.395Z,69.64
2018-02-27T12:19:16.265Z,67.62
2018-02-27T12:20:17.186Z,65.72
2018-02-27T12:21:17.089Z,64.40
2018-02-27T12:23:00.667Z,64.61
2018-02-27T12:24:00.632Z,66.13
2018-02-27T12:25:00.662Z,67.33
2018-02-27T12:26:00.423Z,68.75
2018-02-27T12:27:00.258Z,69.60
2018-02-27T12:28:00.235Z,70.36
2018-02-27T12:29:00.206Z,70.55
2018-02-27T12:30:00.564Z,70.74
2018-02-27T12:31:00.530Z,70.64
2018-02-27T12:32:00.047Z,70.64
2018-02-27T12:33:00.864Z,70.68
2018-02-27T12:34:00.564Z,69.54
2018-02-27T12:35:00.311Z,68.59
2018-02-27T12:36:00.079Z,67.49
2018-02-27T12:37:23.442Z,66.29
2018-02-27T12:38:24.269Z,64.78
2018-02-27T12:39:23.672Z,62.97
2018-02-27T12:40:23.391Z,62.21
2018-02-27T12:41:45.593Z,61.27
2018-02-27T12:42:46.730Z,61.11
2018-02-27T12:43:46.580Z,60.73
2018-02-27T12:44:46.148Z,59.52
2018-02-27T12:45:46.029Z,59.24
2018-02-27T12:46:45.578Z,58.39
2018-02-27T12:47:46.688Z,57.56
2018-02-27T12:48:46.022Z,57.15
2018-02-27T12:49:45.756Z,57.09
2018-02-27T12:50:46.355Z,57.18
2018-02-27T12:51:46.013Z,56.63
2018-02-27T12:52:45.717Z,55.40
2018-02-27T12:53:46.574Z,54.26
2018-02-27T12:54:46.421Z,53.88
2018-02-27T12:55:46.963Z,53.31
2018-02-27T12:56:46.751Z,53.05
2018-02-27T12:57:46.680Z,52.86
2018-02-27T12:58:46.425Z,52.67
2018-02-27T12:59:46.745Z,52.67
2018-02-27T13:00:46.629Z,51.98
2018-02-27T13:01:46.386Z,51.60
2018-02-27T13:02:46.328Z,51.03
2018-02-27T13:03:45.869Z,51.41
2018-02-27T13:04:46.663Z,52.69
2018-02-27T13:05:45.974Z,54.58
2018-02-27T13:07:07.609Z,55.82
2018-02-27T13:08:08.187Z,55.79
2018-02-27T13:09:08.149Z,55.51
2018-02-27T13:10:07.539Z,55.98
2018-02-27T13:11:08.461Z,57.47
2018-02-27T13:12:28.761Z,62.47
2018-02-27T13:13:29.745Z,66.16
2018-02-27T13:14:29.313Z,68.98
2018-02-27T13:15:29.217Z,71.25
2018-02-27T13:16:29.762Z,73.30
2018-02-27T13:17:29.624Z,75.09
2018-02-27T13:18:29.074Z,77.80
2018-02-27T13:19:29.994Z,80.88
2018-02-27T13:20:29.836Z,83.30
2018-02-27T13:21:50.645Z,86.23
2018-02-27T13:22:51.046Z,88.27
2018-02-27T14:30:41.300Z,75.07